sensor_id;sensor_type;location;lat;lon;timestamp;P1;durP1;ratioP1;P2;durP2;ratioP2
59042;SDS011;44826;51.596;5.624;2022-11-11T00:00:15;6.07;;;3.83;;
59042;SDS011;44826;51.596;5.624;2022-11-11T00:02:40;7.80;;;3.67;;
59042;SDS011;44826;51.596;5.624;2022-11-11T00:05:06;8.82;;;4.00;;
59042;SDS011;44826;51.596;5.624;2022-11-11T00:07:31;10.73;;;4.20;;
59042;SDS011;44826;51.596;5.624;2022-11-11T00:09:56;9.57;;;3.85;;
59042;SDS011;44826;51.596;5.624;2022-11-11T00:12:22;5.50;;;3.70;;
59042;SDS011;44826;51.596;5.624;2022-11-11T00:14:47;8.90;;;3.97;;
59042;SDS011;44826;51.596;5.624;2022-11-11T00:17:12;11.10;;;4.15;;
59042;SDS011;44826;51.596;5.624;2022-11-11T00:19:56;8.13;;;4.22;;
59042;SDS011;44826;51.596;5.624;2022-11-11T00:22:40;9.02;;;4.50;;
59042;SDS011;44826;51.596;5.624;2022-11-11T00:25:24;10.00;;;4.78;;
59042;SDS011;44826;51.596;5.624;2022-11-11T00:27:50;9.48;;;4.80;;
59042;SDS011;44826;51.596;5.624;2022-11-11T00:30:15;9.68;;;4.38;;
59042;SDS011;44826;51.596;5.624;2022-11-11T00:32:41;8.27;;;4.72;;
59042;SDS011;44826;51.596;5.624;2022-11-11T00:35:06;8.23;;;4.65;;
59042;SDS011;44826;51.596;5.624;2022-11-11T00:37:51;8.10;;;5.00;;
59042;SDS011;44826;51.596;5.624;2022-11-11T00:40:16;9.13;;;4.78;;
59042;SDS011;44826;51.596;5.624;2022-11-11T00:42:42;9.85;;;5.00;;
59042;SDS011;44826;51.596;5.624;2022-11-11T00:45:08;8.88;;;5.45;;
59042;SDS011;44826;51.596;5.624;2022-11-11T00:47:34;10.68;;;5.40;;
59042;SDS011;44826;51.596;5.624;2022-11-11T00:50:19;10.73;;;5.50;;
59042;SDS011;44826;51.596;5.624;2022-11-11T00:53:10;9.75;;;5.28;;
59042;SDS011;44826;51.596;5.624;2022-11-11T00:55:37;9.18;;;5.47;;
59042;SDS011;44826;51.596;5.624;2022-11-11T00:58:03;10.60;;;5.70;;
59042;SDS011;44826;51.596;5.624;2022-11-11T01:00:28;8.52;;;5.50;;
59042;SDS011;44826;51.596;5.624;2022-11-11T01:02:54;9.55;;;6.18;;
59042;SDS011;44826;51.596;5.624;2022-11-11T01:05:21;10.90;;;6.30;;
59042;SDS011;44826;51.596;5.624;2022-11-11T01:07:47;10.35;;;6.30;;
59042;SDS011;44826;51.596;5.624;2022-11-11T01:10:13;11.40;;;6.22;;
59042;SDS011;44826;51.596;5.624;2022-11-11T01:12:59;10.60;;;5.97;;
59042;SDS011;44826;51.596;5.624;2022-11-11T01:15:35;9.10;;;6.10;;
59042;SDS011;44826;51.596;5.624;2022-11-11T01:18:01;11.32;;;6.18;;
59042;SDS011;44826;51.596;5.624;2022-11-11T01:20:26;12.60;;;6.32;;
59042;SDS011;44826;51.596;5.624;2022-11-11T01:22:51;10.43;;;6.22;;
59042;SDS011;44826;51.596;5.624;2022-11-11T01:25:17;14.82;;;6.47;;
59042;SDS011;44826;51.596;5.624;2022-11-11T01:27:42;11.63;;;5.90;;
59042;SDS011;44826;51.596;5.624;2022-11-11T01:30:07;13.30;;;6.70;;
59042;SDS011;44826;51.596;5.624;2022-11-11T01:32:33;10.82;;;7.00;;
59042;SDS011;44826;51.596;5.624;2022-11-11T01:34:58;11.60;;;6.75;;
59042;SDS011;44826;51.596;5.624;2022-11-11T01:37:23;11.63;;;7.25;;
59042;SDS011;44826;51.596;5.624;2022-11-11T01:39:49;12.82;;;7.50;;
59042;SDS011;44826;51.596;5.624;2022-11-11T01:42:14;11.57;;;7.20;;
59042;SDS011;44826;51.596;5.624;2022-11-11T01:44:48;13.35;;;7.30;;
59042;SDS011;44826;51.596;5.624;2022-11-11T01:47:13;12.98;;;7.40;;
59042;SDS011;44826;51.596;5.624;2022-11-11T01:52:33;12.27;;;7.13;;
59042;SDS011;44826;51.596;5.624;2022-11-11T01:57:39;12.57;;;6.88;;
59042;SDS011;44826;51.596;5.624;2022-11-11T02:00:06;13.13;;;7.75;;
59042;SDS011;44826;51.596;5.624;2022-11-11T02:02:38;12.82;;;6.97;;
59042;SDS011;44826;51.596;5.624;2022-11-11T02:05:08;14.40;;;7.15;;
59042;SDS011;44826;51.596;5.624;2022-11-11T02:07:58;12.18;;;7.35;;
59042;SDS011;44826;51.596;5.624;2022-11-11T02:10:26;11.77;;;7.25;;
59042;SDS011;44826;51.596;5.624;2022-11-11T02:12:54;12.73;;;7.22;;
59042;SDS011;44826;51.596;5.624;2022-11-11T02:15:38;12.35;;;6.97;;
59042;SDS011;44826;51.596;5.624;2022-11-11T02:18:04;11.82;;;7.28;;
59042;SDS011;44826;51.596;5.624;2022-11-11T02:20:29;14.18;;;7.25;;
59042;SDS011;44826;51.596;5.624;2022-11-11T02:23:00;13.20;;;7.53;;
59042;SDS011;44826;51.596;5.624;2022-11-11T02:25:30;12.38;;;6.90;;
59042;SDS011;44826;51.596;5.624;2022-11-11T02:27:58;13.63;;;7.22;;
59042;SDS011;44826;51.596;5.624;2022-11-11T02:30:27;13.45;;;8.20;;
59042;SDS011;44826;51.596;5.624;2022-11-11T02:32:52;12.80;;;7.35;;
59042;SDS011;44826;51.596;5.624;2022-11-11T02:35:20;14.20;;;7.80;;
59042;SDS011;44826;51.596;5.624;2022-11-11T02:37:48;13.85;;;7.03;;
59042;SDS011;44826;51.596;5.624;2022-11-11T02:40:17;11.68;;;7.10;;
59042;SDS011;44826;51.596;5.624;2022-11-11T02:42:43;13.45;;;6.90;;
59042;SDS011;44826;51.596;5.624;2022-11-11T02:45:09;11.90;;;6.78;;
59042;SDS011;44826;51.596;5.624;2022-11-11T02:47:35;12.88;;;7.30;;
59042;SDS011;44826;51.596;5.624;2022-11-11T02:50:00;14.13;;;7.78;;
59042;SDS011;44826;51.596;5.624;2022-11-11T02:52:25;12.45;;;7.32;;
59042;SDS011;44826;51.596;5.624;2022-11-11T02:54:51;14.32;;;7.53;;
59042;SDS011;44826;51.596;5.624;2022-11-11T02:57:16;13.10;;;7.50;;
59042;SDS011;44826;51.596;5.624;2022-11-11T02:59:41;13.65;;;6.93;;
59042;SDS011;44826;51.596;5.624;2022-11-11T03:02:07;13.38;;;6.90;;
59042;SDS011;44826;51.596;5.624;2022-11-11T03:04:33;12.32;;;6.70;;
59042;SDS011;44826;51.596;5.624;2022-11-11T03:06:58;14.15;;;7.25;;
59042;SDS011;44826;51.596;5.624;2022-11-11T03:09:24;11.52;;;6.85;;
59042;SDS011;44826;51.596;5.624;2022-11-11T03:11:50;12.70;;;6.70;;
59042;SDS011;44826;51.596;5.624;2022-11-11T03:14:15;12.13;;;6.93;;
59042;SDS011;44826;51.596;5.624;2022-11-11T03:16:41;12.00;;;7.18;;
59042;SDS011;44826;51.596;5.624;2022-11-11T03:19:24;10.27;;;6.28;;
59042;SDS011;44826;51.596;5.624;2022-11-11T03:21:50;11.70;;;7.05;;
59042;SDS011;44826;51.596;5.624;2022-11-11T03:24:15;11.52;;;6.68;;
59042;SDS011;44826;51.596;5.624;2022-11-11T03:26:40;10.80;;;6.88;;
59042;SDS011;44826;51.596;5.624;2022-11-11T03:29:05;10.98;;;6.38;;
59042;SDS011;44826;51.596;5.624;2022-11-11T03:31:31;11.05;;;6.80;;
59042;SDS011;44826;51.596;5.624;2022-11-11T03:33:56;11.35;;;6.43;;
59042;SDS011;44826;51.596;5.624;2022-11-11T03:36:42;12.05;;;6.95;;
59042;SDS011;44826;51.596;5.624;2022-11-11T03:39:29;11.02;;;5.93;;
59042;SDS011;44826;51.596;5.624;2022-11-11T03:41:55;10.27;;;5.95;;
59042;SDS011;44826;51.596;5.624;2022-11-11T03:44:21;12.63;;;6.22;;
59042;SDS011;44826;51.596;5.624;2022-11-11T03:46:46;11.30;;;6.28;;
59042;SDS011;44826;51.596;5.624;2022-11-11T03:49:11;9.95;;;6.03;;
59042;SDS011;44826;51.596;5.624;2022-11-11T03:51:37;10.93;;;6.30;;
59042;SDS011;44826;51.596;5.624;2022-11-11T03:54:02;12.50;;;6.22;;
59042;SDS011;44826;51.596;5.624;2022-11-11T03:56:27;10.95;;;6.50;;
59042;SDS011;44826;51.596;5.624;2022-11-11T03:58:53;9.63;;;6.05;;
59042;SDS011;44826;51.596;5.624;2022-11-11T04:01:18;9.02;;;5.95;;
59042;SDS011;44826;51.596;5.624;2022-11-11T04:04:09;11.18;;;6.13;;
59042;SDS011;44826;51.596;5.624;2022-11-11T04:06:53;11.30;;;6.50;;
59042;SDS011;44826;51.596;5.624;2022-11-11T04:09:37;11.60;;;6.90;;
59042;SDS011;44826;51.596;5.624;2022-11-11T04:12:21;11.40;;;6.38;;
59042;SDS011;44826;51.596;5.624;2022-11-11T04:14:47;12.20;;;6.72;;
59042;SDS011;44826;51.596;5.624;2022-11-11T04:17:31;11.35;;;6.80;;
59042;SDS011;44826;51.596;5.624;2022-11-11T04:19:56;10.45;;;6.65;;
59042;SDS011;44826;51.596;5.624;2022-11-11T04:22:43;10.18;;;6.20;;
59042;SDS011;44826;51.596;5.624;2022-11-11T04:25:08;12.32;;;6.28;;
59042;SDS011;44826;51.596;5.624;2022-11-11T04:27:55;11.07;;;6.53;;
59042;SDS011;44826;51.596;5.624;2022-11-11T04:30:41;10.30;;;5.75;;
59042;SDS011;44826;51.596;5.624;2022-11-11T04:33:07;11.10;;;6.18;;
59042;SDS011;44826;51.596;5.624;2022-11-11T04:35:33;10.32;;;6.90;;
59042;SDS011;44826;51.596;5.624;2022-11-11T04:37:58;10.43;;;6.47;;
59042;SDS011;44826;51.596;5.624;2022-11-11T04:40:42;11.90;;;6.82;;
59042;SDS011;44826;51.596;5.624;2022-11-11T04:43:26;11.90;;;6.55;;
59042;SDS011;44826;51.596;5.624;2022-11-11T04:45:51;10.77;;;6.22;;
59042;SDS011;44826;51.596;5.624;2022-11-11T04:48:16;11.48;;;6.40;;
59042;SDS011;44826;51.596;5.624;2022-11-11T04:50:43;10.93;;;6.50;;
59042;SDS011;44826;51.596;5.624;2022-11-11T04:53:09;11.48;;;6.85;;
59042;SDS011;44826;51.596;5.624;2022-11-11T04:55:37;11.82;;;6.03;;
59042;SDS011;44826;51.596;5.624;2022-11-11T04:58:21;11.98;;;6.60;;
59042;SDS011;44826;51.596;5.624;2022-11-11T05:00:48;11.02;;;6.28;;
59042;SDS011;44826;51.596;5.624;2022-11-11T05:03:14;10.63;;;6.03;;
59042;SDS011;44826;51.596;5.624;2022-11-11T05:05:45;9.45;;;6.32;;
59042;SDS011;44826;51.596;5.624;2022-11-11T05:08:37;9.95;;;5.35;;
59042;SDS011;44826;51.596;5.624;2022-11-11T05:11:28;9.57;;;5.68;;
59042;SDS011;44826;51.596;5.624;2022-11-11T05:13:56;12.98;;;6.30;;
59042;SDS011;44826;51.596;5.624;2022-11-11T05:16:42;10.20;;;5.97;;
59042;SDS011;44826;51.596;5.624;2022-11-11T05:19:27;8.85;;;5.43;;
59042;SDS011;44826;51.596;5.624;2022-11-11T05:22:21;10.38;;;6.00;;
59042;SDS011;44826;51.596;5.624;2022-11-11T05:24:49;8.85;;;5.50;;
59042;SDS011;44826;51.596;5.624;2022-11-11T05:27:34;11.07;;;6.53;;
59042;SDS011;44826;51.596;5.624;2022-11-11T05:29:59;11.43;;;6.55;;
59042;SDS011;44826;51.596;5.624;2022-11-11T05:32:24;10.30;;;6.47;;
59042;SDS011;44826;51.596;5.624;2022-11-11T05:34:50;11.10;;;6.60;;
59042;SDS011;44826;51.596;5.624;2022-11-11T05:37:16;11.30;;;7.10;;
59042;SDS011;44826;51.596;5.624;2022-11-11T05:39:42;8.75;;;5.53;;
59042;SDS011;44826;51.596;5.624;2022-11-11T05:42:08;9.98;;;6.20;;
59042;SDS011;44826;51.596;5.624;2022-11-11T05:44:33;11.35;;;7.05;;
59042;SDS011;44826;51.596;5.624;2022-11-11T05:46:59;13.38;;;6.90;;
59042;SDS011;44826;51.596;5.624;2022-11-11T05:49:25;13.07;;;7.55;;
59042;SDS011;44826;51.596;5.624;2022-11-11T05:51:51;12.18;;;7.00;;
59042;SDS011;44826;51.596;5.624;2022-11-11T05:54:17;14.90;;;7.00;;
59042;SDS011;44826;51.596;5.624;2022-11-11T05:56:43;11.45;;;6.57;;
59042;SDS011;44826;51.596;5.624;2022-11-11T05:59:08;12.25;;;6.78;;
59042;SDS011;44826;51.596;5.624;2022-11-11T06:01:35;13.13;;;7.35;;
59042;SDS011;44826;51.596;5.624;2022-11-11T06:04:01;13.25;;;7.32;;
59042;SDS011;44826;51.596;5.624;2022-11-11T06:06:27;12.38;;;7.55;;
59042;SDS011;44826;51.596;5.624;2022-11-11T06:08:52;15.13;;;7.90;;
59042;SDS011;44826;51.596;5.624;2022-11-11T06:11:18;13.13;;;7.43;;
59042;SDS011;44826;51.596;5.624;2022-11-11T06:13:43;12.85;;;7.95;;
59042;SDS011;44826;51.596;5.624;2022-11-11T06:16:08;13.60;;;7.75;;
59042;SDS011;44826;51.596;5.624;2022-11-11T06:18:34;12.30;;;6.97;;
59042;SDS011;44826;51.596;5.624;2022-11-11T06:20:59;14.15;;;8.10;;
59042;SDS011;44826;51.596;5.624;2022-11-11T06:23:26;13.88;;;7.70;;
59042;SDS011;44826;51.596;5.624;2022-11-11T06:25:52;13.90;;;8.30;;
59042;SDS011;44826;51.596;5.624;2022-11-11T06:28:36;13.07;;;7.80;;
59042;SDS011;44826;51.596;5.624;2022-11-11T06:31:03;12.93;;;7.53;;
59042;SDS011;44826;51.596;5.624;2022-11-11T06:33:29;14.48;;;7.85;;
59042;SDS011;44826;51.596;5.624;2022-11-11T06:35:54;14.25;;;7.80;;
59042;SDS011;44826;51.596;5.624;2022-11-11T06:38:19;14.32;;;8.20;;
59042;SDS011;44826;51.596;5.624;2022-11-11T06:40:45;14.23;;;7.78;;
59042;SDS011;44826;51.596;5.624;2022-11-11T06:43:10;14.82;;;8.38;;
59042;SDS011;44826;51.596;5.624;2022-11-11T06:45:36;14.77;;;7.35;;
59042;SDS011;44826;51.596;5.624;2022-11-11T06:48:02;14.82;;;7.78;;
59042;SDS011;44826;51.596;5.624;2022-11-11T06:50:28;13.07;;;7.22;;
59042;SDS011;44826;51.596;5.624;2022-11-11T06:52:54;13.32;;;7.70;;
59042;SDS011;44826;51.596;5.624;2022-11-11T06:55:19;14.05;;;7.10;;
59042;SDS011;44826;51.596;5.624;2022-11-11T06:57:45;12.85;;;6.90;;
59042;SDS011;44826;51.596;5.624;2022-11-11T07:00:10;11.82;;;7.22;;
59042;SDS011;44826;51.596;5.624;2022-11-11T07:02:36;11.95;;;6.88;;
59042;SDS011;44826;51.596;5.624;2022-11-11T07:05:01;11.27;;;6.78;;
59042;SDS011;44826;51.596;5.624;2022-11-11T07:07:27;13.02;;;7.35;;
59042;SDS011;44826;51.596;5.624;2022-11-11T07:09:52;11.50;;;6.63;;
59042;SDS011;44826;51.596;5.624;2022-11-11T07:12:19;11.55;;;6.43;;
59042;SDS011;44826;51.596;5.624;2022-11-11T07:14:46;12.05;;;6.63;;
59042;SDS011;44826;51.596;5.624;2022-11-11T07:17:11;12.65;;;7.00;;
59042;SDS011;44826;51.596;5.624;2022-11-11T07:19:36;13.88;;;6.93;;
59042;SDS011;44826;51.596;5.624;2022-11-11T07:22:01;13.88;;;6.93;;
59042;SDS011;44826;51.596;5.624;2022-11-11T07:24:27;14.25;;;7.53;;
59042;SDS011;44826;51.596;5.624;2022-11-11T07:26:52;13.07;;;6.85;;
59042;SDS011;44826;51.596;5.624;2022-11-11T07:29:17;10.65;;;6.65;;
59042;SDS011;44826;51.596;5.624;2022-11-11T07:31:43;13.18;;;7.03;;
59042;SDS011;44826;51.596;5.624;2022-11-11T07:34:08;13.38;;;6.07;;
59042;SDS011;44826;51.596;5.624;2022-11-11T07:36:34;9.85;;;5.32;;
59042;SDS011;44826;51.596;5.624;2022-11-11T07:38:59;13.20;;;5.80;;
59042;SDS011;44826;51.596;5.624;2022-11-11T07:41:24;9.73;;;5.63;;
59042;SDS011;44826;51.596;5.624;2022-11-11T07:43:50;10.15;;;5.70;;
59042;SDS011;44826;51.596;5.624;2022-11-11T07:46:15;12.05;;;6.45;;
59042;SDS011;44826;51.596;5.624;2022-11-11T07:48:40;10.23;;;5.50;;
59042;SDS011;44826;51.596;5.624;2022-11-11T07:51:06;10.88;;;5.55;;
59042;SDS011;44826;51.596;5.624;2022-11-11T07:53:31;9.77;;;4.85;;
59042;SDS011;44826;51.596;5.624;2022-11-11T07:55:56;9.75;;;5.45;;
59042;SDS011;44826;51.596;5.624;2022-11-11T07:58:22;8.02;;;4.55;;
59042;SDS011;44826;51.596;5.624;2022-11-11T08:00:47;8.50;;;4.90;;
59042;SDS011;44826;51.596;5.624;2022-11-11T08:03:12;9.05;;;4.68;;
59042;SDS011;44826;51.596;5.624;2022-11-11T08:05:37;8.10;;;4.50;;
59042;SDS011;44826;51.596;5.624;2022-11-11T08:08:03;8.20;;;4.57;;
59042;SDS011;44826;51.596;5.624;2022-11-11T08:10:30;7.55;;;4.35;;
59042;SDS011;44826;51.596;5.624;2022-11-11T08:12:56;7.78;;;4.47;;
59042;SDS011;44826;51.596;5.624;2022-11-11T08:15:40;6.72;;;3.83;;
59042;SDS011;44826;51.596;5.624;2022-11-11T08:18:05;7.93;;;4.30;;
59042;SDS011;44826;51.596;5.624;2022-11-11T08:20:31;7.10;;;4.00;;
59042;SDS011;44826;51.596;5.624;2022-11-11T08:22:56;7.05;;;4.22;;
59042;SDS011;44826;51.596;5.624;2022-11-11T08:25:23;8.60;;;4.03;;
59042;SDS011;44826;51.596;5.624;2022-11-11T08:27:49;8.15;;;3.97;;
59042;SDS011;44826;51.596;5.624;2022-11-11T08:30:20;6.50;;;3.67;;
59042;SDS011;44826;51.596;5.624;2022-11-11T08:32:45;5.90;;;3.70;;
59042;SDS011;44826;51.596;5.624;2022-11-11T08:35:10;5.97;;;3.20;;
59042;SDS011;44826;51.596;5.624;2022-11-11T08:37:36;6.50;;;3.60;;
59042;SDS011;44826;51.596;5.624;2022-11-11T08:40:01;5.85;;;3.47;;
59042;SDS011;44826;51.596;5.624;2022-11-11T08:42:26;6.60;;;3.65;;
59042;SDS011;44826;51.596;5.624;2022-11-11T08:44:52;5.68;;;3.20;;
59042;SDS011;44826;51.596;5.624;2022-11-11T08:47:17;7.72;;;3.67;;
59042;SDS011;44826;51.596;5.624;2022-11-11T08:49:44;4.75;;;3.03;;
59042;SDS011;44826;51.596;5.624;2022-11-11T08:52:09;7.25;;;3.40;;
59042;SDS011;44826;51.596;5.624;2022-11-11T08:54:35;5.78;;;3.08;;
59042;SDS011;44826;51.596;5.624;2022-11-11T08:57:00;6.70;;;3.00;;
59042;SDS011;44826;51.596;5.624;2022-11-11T08:59:25;6.03;;;3.47;;
59042;SDS011;44826;51.596;5.624;2022-11-11T09:01:50;6.15;;;2.90;;
59042;SDS011;44826;51.596;5.624;2022-11-11T09:04:16;5.15;;;2.72;;
59042;SDS011;44826;51.596;5.624;2022-11-11T09:06:41;4.82;;;2.97;;
59042;SDS011;44826;51.596;5.624;2022-11-11T09:09:09;6.03;;;3.10;;
59042;SDS011;44826;51.596;5.624;2022-11-11T09:11:35;4.60;;;2.92;;
59042;SDS011;44826;51.596;5.624;2022-11-11T09:14:00;7.40;;;3.08;;
59042;SDS011;44826;51.596;5.624;2022-11-11T09:16:26;6.40;;;3.22;;
59042;SDS011;44826;51.596;5.624;2022-11-11T09:18:51;5.63;;;2.90;;
59042;SDS011;44826;51.596;5.624;2022-11-11T09:21:16;5.75;;;3.20;;
59042;SDS011;44826;51.596;5.624;2022-11-11T09:23:42;5.97;;;2.88;;
59042;SDS011;44826;51.596;5.624;2022-11-11T09:26:07;5.93;;;3.40;;
59042;SDS011;44826;51.596;5.624;2022-11-11T09:28:32;5.75;;;3.13;;
59042;SDS011;44826;51.596;5.624;2022-11-11T09:31:00;6.10;;;3.30;;
59042;SDS011;44826;51.596;5.624;2022-11-11T09:33:27;5.03;;;2.83;;
59042;SDS011;44826;51.596;5.624;2022-11-11T09:35:52;6.75;;;3.22;;
59042;SDS011;44826;51.596;5.624;2022-11-11T09:38:18;5.68;;;3.10;;
59042;SDS011;44826;51.596;5.624;2022-11-11T09:43:39;4.80;;;2.80;;
59042;SDS011;44826;51.596;5.624;2022-11-11T09:46:30;5.10;;;2.78;;
59042;SDS011;44826;51.596;5.624;2022-11-11T09:49:09;6.15;;;3.22;;
59042;SDS011;44826;51.596;5.624;2022-11-11T09:52:03;8.93;;;3.50;;
59042;SDS011;44826;51.596;5.624;2022-11-11T09:57:21;6.03;;;3.42;;
59042;SDS011;44826;51.596;5.624;2022-11-11T09:59:50;5.60;;;3.05;;
59042;SDS011;44826;51.596;5.624;2022-11-11T10:02:28;7.65;;;3.60;;
59042;SDS011;44826;51.596;5.624;2022-11-11T10:05:02;6.45;;;3.20;;
59042;SDS011;44826;51.596;5.624;2022-11-11T10:07:34;5.55;;;3.28;;
59042;SDS011;44826;51.596;5.624;2022-11-11T10:10:07;6.10;;;3.33;;
59042;SDS011;44826;51.596;5.624;2022-11-11T10:12:41;6.55;;;3.13;;
59042;SDS011;44826;51.596;5.624;2022-11-11T10:15:14;6.32;;;3.33;;
59042;SDS011;44826;51.596;5.624;2022-11-11T10:20:31;5.25;;;3.25;;
59042;SDS011;44826;51.596;5.624;2022-11-11T10:23:00;5.78;;;3.10;;
59042;SDS011;44826;51.596;5.624;2022-11-11T10:25:37;6.10;;;3.15;;
59042;SDS011;44826;51.596;5.624;2022-11-11T10:28:15;6.72;;;3.47;;
59042;SDS011;44826;51.596;5.624;2022-11-11T10:30:43;5.45;;;3.17;;
59042;SDS011;44826;51.596;5.624;2022-11-11T10:33:11;5.43;;;3.20;;
59042;SDS011;44826;51.596;5.624;2022-11-11T10:35:42;5.30;;;3.10;;
59042;SDS011;44826;51.596;5.624;2022-11-11T10:38:16;4.20;;;2.78;;
59042;SDS011;44826;51.596;5.624;2022-11-11T10:40:53;5.90;;;3.08;;
59042;SDS011;44826;51.596;5.624;2022-11-11T10:43:25;4.78;;;2.88;;
59042;SDS011;44826;51.596;5.624;2022-11-11T10:45:54;4.82;;;2.88;;
59042;SDS011;44826;51.596;5.624;2022-11-11T10:48:37;6.93;;;2.97;;
59042;SDS011;44826;51.596;5.624;2022-11-11T10:51:21;6.45;;;2.88;;
59042;SDS011;44826;51.596;5.624;2022-11-11T10:59:04;4.35;;;2.60;;
59042;SDS011;44826;51.596;5.624;2022-11-11T11:01:54;5.03;;;2.67;;
59042;SDS011;44826;51.596;5.624;2022-11-11T11:04:44;5.35;;;2.70;;
59042;SDS011;44826;51.596;5.624;2022-11-11T11:07:20;4.38;;;2.25;;
59042;SDS011;44826;51.596;5.624;2022-11-11T11:12:34;4.30;;;2.50;;
59042;SDS011;44826;51.596;5.624;2022-11-11T11:15:22;3.72;;;2.40;;
59042;SDS011;44826;51.596;5.624;2022-11-11T11:17:52;3.90;;;2.20;;
59042;SDS011;44826;51.596;5.624;2022-11-11T11:20:22;4.30;;;2.45;;
59042;SDS011;44826;51.596;5.624;2022-11-11T11:22:49;3.20;;;2.10;;
59042;SDS011;44826;51.596;5.624;2022-11-11T11:25:17;3.45;;;2.22;;
59042;SDS011;44826;51.596;5.624;2022-11-11T11:27:44;6.18;;;2.33;;
59042;SDS011;44826;51.596;5.624;2022-11-11T11:30:27;4.30;;;2.30;;
59042;SDS011;44826;51.596;5.624;2022-11-11T11:32:56;3.58;;;1.92;;
59042;SDS011;44826;51.596;5.624;2022-11-11T11:35:43;5.18;;;2.08;;
59042;SDS011;44826;51.596;5.624;2022-11-11T11:38:09;6.05;;;2.30;;
59042;SDS011;44826;51.596;5.624;2022-11-11T11:40:49;2.53;;;1.73;;
59042;SDS011;44826;51.596;5.624;2022-11-11T11:43:33;4.53;;;2.10;;
59042;SDS011;44826;51.596;5.624;2022-11-11T11:46:45;3.22;;;1.90;;
59042;SDS011;44826;51.596;5.624;2022-11-11T11:54:16;3.22;;;1.75;;
59042;SDS011;44826;51.596;5.624;2022-11-11T11:56:59;2.78;;;1.60;;
59042;SDS011;44826;51.596;5.624;2022-11-11T12:02:14;3.90;;;1.63;;
59042;SDS011;44826;51.596;5.624;2022-11-11T12:07:47;2.88;;;1.52;;
59042;SDS011;44826;51.596;5.624;2022-11-11T12:15:36;3.45;;;1.50;;
59042;SDS011;44826;51.596;5.624;2022-11-11T12:25:51;3.13;;;1.40;;
59042;SDS011;44826;51.596;5.624;2022-11-11T12:36:35;2.63;;;1.30;;
59042;SDS011;44826;51.596;5.624;2022-11-11T12:45:04;2.95;;;1.33;;
59042;SDS011;44826;51.596;5.624;2022-11-11T13:01:49;2.35;;;1.25;;
59042;SDS011;44826;51.596;5.624;2022-11-11T13:04:25;2.55;;;1.40;;
59042;SDS011;44826;51.596;5.624;2022-11-11T13:07:09;2.67;;;1.40;;
59042;SDS011;44826;51.596;5.624;2022-11-11T13:10:02;2.45;;;1.30;;
59042;SDS011;44826;51.596;5.624;2022-11-11T13:12:54;2.13;;;1.40;;
59042;SDS011;44826;51.596;5.624;2022-11-11T13:15:29;2.38;;;1.38;;
59042;SDS011;44826;51.596;5.624;2022-11-11T13:17:54;2.38;;;1.30;;
59042;SDS011;44826;51.596;5.624;2022-11-11T13:22:58;2.75;;;1.30;;
59042;SDS011;44826;51.596;5.624;2022-11-11T13:25:25;2.90;;;1.27;;
59042;SDS011;44826;51.596;5.624;2022-11-11T13:28:02;3.50;;;1.20;;
59042;SDS011;44826;51.596;5.624;2022-11-11T13:30:48;2.28;;;1.50;;
59042;SDS011;44826;51.596;5.624;2022-11-11T13:33:25;2.08;;;1.20;;
59042;SDS011;44826;51.596;5.624;2022-11-11T13:36:01;2.50;;;1.27;;
59042;SDS011;44826;51.596;5.624;2022-11-11T13:38:32;2.90;;;1.23;;
59042;SDS011;44826;51.596;5.624;2022-11-11T13:41:07;2.60;;;1.20;;
59042;SDS011;44826;51.596;5.624;2022-11-11T13:48:54;3.13;;;1.10;;
59042;SDS011;44826;51.596;5.624;2022-11-11T13:53:58;3.97;;;1.23;;
59042;SDS011;44826;51.596;5.624;2022-11-11T13:59:03;1.88;;;1.23;;
59042;SDS011;44826;51.596;5.624;2022-11-11T14:01:32;2.83;;;1.15;;
59042;SDS011;44826;51.596;5.624;2022-11-11T14:04:00;3.13;;;1.20;;
59042;SDS011;44826;51.596;5.624;2022-11-11T14:06:33;3.28;;;1.25;;
59042;SDS011;44826;51.596;5.624;2022-11-11T14:09:01;1.60;;;1.20;;
59042;SDS011;44826;51.596;5.624;2022-11-11T14:11:31;2.35;;;1.27;;
59042;SDS011;44826;51.596;5.624;2022-11-11T14:22:02;5.35;;;1.52;;
59042;SDS011;44826;51.596;5.624;2022-11-11T14:25:17;7.13;;;1.58;;
59042;SDS011;44826;51.596;5.624;2022-11-11T14:27:45;2.83;;;1.60;;
59042;SDS011;44826;51.596;5.624;2022-11-11T14:30:25;8.68;;;1.58;;
59042;SDS011;44826;51.596;5.624;2022-11-11T14:33:16;5.90;;;1.40;;
59042;SDS011;44826;51.596;5.624;2022-11-11T14:39:21;2.83;;;1.27;;
59042;SDS011;44826;51.596;5.624;2022-11-11T14:41:56;1.88;;;1.20;;
59042;SDS011;44826;51.596;5.624;2022-11-11T14:57:47;3.88;;;1.40;;
59042;SDS011;44826;51.596;5.624;2022-11-11T15:00:16;2.78;;;1.30;;
59042;SDS011;44826;51.596;5.624;2022-11-11T15:02:46;2.88;;;1.67;;
59042;SDS011;44826;51.596;5.624;2022-11-11T15:05:25;2.45;;;1.48;;
59042;SDS011;44826;51.596;5.624;2022-11-11T15:08:35;2.65;;;1.30;;
59042;SDS011;44826;51.596;5.624;2022-11-11T15:11:11;4.18;;;1.40;;
59042;SDS011;44826;51.596;5.624;2022-11-11T15:16:54;2.27;;;1.33;;
59042;SDS011;44826;51.596;5.624;2022-11-11T15:19:40;4.10;;;1.67;;
59042;SDS011;44826;51.596;5.624;2022-11-11T15:22:32;3.33;;;1.40;;
59042;SDS011;44826;51.596;5.624;2022-11-11T15:26:16;2.80;;;1.65;;
59042;SDS011;44826;51.596;5.624;2022-11-11T15:37:10;1.77;;;1.13;;
59042;SDS011;44826;51.596;5.624;2022-11-11T15:39:39;3.47;;;1.50;;
59042;SDS011;44826;51.596;5.624;2022-11-11T15:42:11;2.42;;;1.30;;
59042;SDS011;44826;51.596;5.624;2022-11-11T15:44:43;1.88;;;1.10;;
59042;SDS011;44826;51.596;5.624;2022-11-11T15:47:11;2.20;;;1.30;;
59042;SDS011;44826;51.596;5.624;2022-11-11T15:49:40;1.73;;;1.10;;
59042;SDS011;44826;51.596;5.624;2022-11-11T15:54:57;2.63;;;1.15;;
59042;SDS011;44826;51.596;5.624;2022-11-11T15:57:31;2.33;;;1.17;;
59042;SDS011;44826;51.596;5.624;2022-11-11T15:59:59;3.90;;;1.20;;
59042;SDS011;44826;51.596;5.624;2022-11-11T16:02:27;2.42;;;1.27;;
59042;SDS011;44826;51.596;5.624;2022-11-11T16:05:02;2.22;;;1.20;;
59042;SDS011;44826;51.596;5.624;2022-11-11T16:07:33;2.38;;;1.30;;
59042;SDS011;44826;51.596;5.624;2022-11-11T16:10:06;3.20;;;1.30;;
59042;SDS011;44826;51.596;5.624;2022-11-11T16:12:56;3.03;;;1.30;;
59042;SDS011;44826;51.596;5.624;2022-11-11T16:15:36;3.67;;;1.30;;
59042;SDS011;44826;51.596;5.624;2022-11-11T16:21:28;3.78;;;1.30;;
59042;SDS011;44826;51.596;5.624;2022-11-11T16:23:55;3.05;;;1.50;;
59042;SDS011;44826;51.596;5.624;2022-11-11T16:26:22;2.22;;;1.45;;
59042;SDS011;44826;51.596;5.624;2022-11-11T16:28:52;2.20;;;1.40;;
59042;SDS011;44826;51.596;5.624;2022-11-11T16:31:20;2.60;;;1.50;;
59042;SDS011;44826;51.596;5.624;2022-11-11T16:37:03;2.78;;;1.48;;
59042;SDS011;44826;51.596;5.624;2022-11-11T16:39:30;3.28;;;1.48;;
59042;SDS011;44826;51.596;5.624;2022-11-11T16:41:57;3.03;;;1.60;;
59042;SDS011;44826;51.596;5.624;2022-11-11T16:46:56;3.20;;;1.85;;
59042;SDS011;44826;51.596;5.624;2022-11-11T16:49:28;3.83;;;1.80;;
59042;SDS011;44826;51.596;5.624;2022-11-11T16:51:54;2.38;;;1.67;;
59042;SDS011;44826;51.596;5.624;2022-11-11T16:54:23;3.67;;;1.88;;
59042;SDS011;44826;51.596;5.624;2022-11-11T16:56:53;3.35;;;1.92;;
59042;SDS011;44826;51.596;5.624;2022-11-11T16:59:40;4.70;;;2.10;;
59042;SDS011;44826;51.596;5.624;2022-11-11T17:02:18;3.00;;;1.88;;
59042;SDS011;44826;51.596;5.624;2022-11-11T17:04:53;5.28;;;1.92;;
59042;SDS011;44826;51.596;5.624;2022-11-11T17:10:13;4.28;;;1.88;;
59042;SDS011;44826;51.596;5.624;2022-11-11T17:12:40;3.50;;;1.90;;
59042;SDS011;44826;51.596;5.624;2022-11-11T17:15:07;4.05;;;2.20;;
59042;SDS011;44826;51.596;5.624;2022-11-11T17:17:34;5.28;;;2.08;;
59042;SDS011;44826;51.596;5.624;2022-11-11T17:20:01;4.97;;;2.30;;
59042;SDS011;44826;51.596;5.624;2022-11-11T17:22:29;5.05;;;2.15;;